Rye, NH

12:21 PM EDT on April 25, 2015 (GMT -0400)
Greenland, NH | | Change Station
CLOSE
Current Station
Personal Weather Station
Location: Greenland, NH
Elevation: 96 ft
Nearby Weather Stations

Elev 96 ft 43.03 °N, 70.83 °W | Updated 3 minutes ago

Mostly Cloudy
Mostly Cloudy
49.6 °F
Feels Like 48 °F
N
4.0
Wind Variable Wind from SW
Gusts 14.0 mph

Today
High -- | Low -- °F
--% Chance of Precip.
Yesterday
High -- | Low -- °F
Precip. -- in
5:45 AM 7:36 PM
Waxing Crescent, 47% visible
Pressure 29.70 in
Visibility 10.0 miles
Clouds Few 5000 ft
Scattered Clouds 11000 ft
Mostly Cloudy 25000 ft
Windchill 48 °F
Dew Point 29 °F
Humidity 44%
Rainfall 0.00 in
Snow Depth Not available.
UV 5 out of 12
Pollen 8.70 out of 12
Air Quality Not available.
Flu Activity Regional
METAR KPSM 251558Z 34010G20KT 10SM FEW050 SCT110 BKN250 10/M04 A2969 RMK AO2A SLP057 T01031036

More Conditions Fewer Conditions

Pressure 29.70 in
Visibility 10.0 miles
Clouds Few 5000 ft
Scattered Clouds 11000 ft
Mostly Cloudy 25000 ft
Windchill 48 °F
Dew Point 29 °F
Humidity 44%
Rainfall 0.00 in
Snow Depth Not available.
UV 5 out of 12
Pollen 8.70 out of 12
Air Quality Not available.
Flu Activity Regional
METAR KPSM 251558Z 34010G20KT 10SM FEW050 SCT110 BKN250 10/M04 A2969 RMK AO2A SLP057 T01031036

More Conditions Fewer Conditions

10-Day Weather Forecast

Almanac

Astronomy

Apr. 25, 2015 Rise Set
Actual Time
Civil Twilight
Nautical Twilight
Astronomical Twilight
Moon
Length of Visible Light
Length of Day
Tomorrow will be .
, % of the Moon is Illuminated

Today's Extremes

State Highs State Lows

Community

WunderPhotos

Upload Photos

1,816,732 photos uploaded!

WunderBlogs® & News

Nearby

Air Quality

  Air Quality AQ Index Pollutant
Not available.

Snow Depth

Station Depth Elevation

Earthquake Activity

City Distance Mag. Time & Date
Minimum magnitude displayed is 2.5.

Coastal Water Temperatures

Place Temperature

Stations

Nearby Weather Stations

Station Location Temp. Windchill Dew Point Humidity Wind Precip. Elev Updated Type